createdAt,value
2022-09-16T00:00:20.584Z,48.36
2022-09-16T00:01:19.950Z,47.94
2022-09-16T00:02:16.679Z,49.26
2022-09-16T00:03:13.930Z,48.50
2022-09-16T00:04:10.551Z,47.58
2022-09-16T00:05:07.706Z,47.74
2022-09-16T00:06:04.426Z,49.31
2022-09-16T00:07:00.996Z,47.65
2022-09-16T00:07:57.662Z,47.80
2022-09-16T00:09:01.029Z,47.17
2022-09-16T00:09:57.632Z,47.83
2022-09-16T00:10:54.248Z,48.09
2022-09-16T00:11:50.802Z,48.08
2022-09-16T00:12:47.839Z,47.40
2022-09-16T00:13:45.795Z,47.41
2022-09-16T00:14:42.509Z,47.71
2022-09-16T00:16:40.021Z,47.03
2022-09-16T00:17:37.974Z,47.52
2022-09-16T00:18:34.856Z,47.47
2022-09-16T00:19:31.795Z,46.48
2022-09-16T00:20:28.895Z,46.74
2022-09-16T00:21:26.073Z,47.01
2022-09-16T00:22:22.686Z,46.55
2022-09-16T00:23:19.963Z,46.60
2022-09-16T00:24:16.787Z,47.67
2022-09-16T00:25:13.411Z,47.96
2022-09-16T00:26:10.205Z,48.15
2022-09-16T00:27:06.753Z,47.09
2022-09-16T00:28:03.415Z,47.53
2022-09-16T00:29:00.012Z,48.94
2022-09-16T00:29:56.607Z,49.31
2022-09-16T00:30:53.556Z,49.46
2022-09-16T00:31:51.154Z,51.52
2022-09-16T00:32:47.791Z,51.02
2022-09-16T00:33:44.449Z,51.34
2022-09-16T00:34:41.064Z,51.15
2022-09-16T00:35:37.671Z,49.61
2022-09-16T00:36:34.233Z,49.23
2022-09-16T00:37:33.372Z,50.21
2022-09-16T00:38:29.983Z,50.40
2022-09-16T00:39:26.546Z,50.97
2022-09-16T00:40:23.432Z,52.69
2022-09-16T00:41:23.099Z,51.46
2022-09-16T00:42:21.017Z,49.81
2022-09-16T00:43:19.861Z,48.61
2022-09-16T00:44:55.525Z,47.60
2022-09-16T00:46:02.269Z,47.50
2022-09-16T00:46:59.305Z,46.97
2022-09-16T00:48:03.166Z,47.11
2022-09-16T00:49:10.807Z,47.55
2022-09-16T00:50:38.534Z,47.36
2022-09-16T00:51:35.450Z,47.06
2022-09-16T00:52:33.123Z,47.13
2022-09-16T00:53:40.704Z,47.31
2022-09-16T00:54:40.952Z,47.08
2022-09-16T00:55:38.370Z,46.64
2022-09-16T00:56:38.798Z,47.00
2022-09-16T00:57:36.663Z,46.90
2022-09-16T00:58:39.196Z,46.84
2022-09-16T00:59:37.194Z,47.53
2022-09-16T01:00:34.216Z,47.08
2022-09-16T01:01:32.184Z,47.47
2022-09-16T01:02:28.839Z,47.34
2022-09-16T01:03:27.680Z,47.30
2022-09-16T01:04:30.013Z,47.97
2022-09-16T01:05:27.078Z,49.54
2022-09-16T01:06:26.117Z,48.24
2022-09-16T01:07:54.805Z,48.50
2022-09-16T01:08:51.611Z,48.02
2022-09-16T01:09:48.248Z,49.08
2022-09-16T01:10:44.858Z,48.58
2022-09-16T01:11:41.422Z,48.34
2022-09-16T01:12:39.975Z,48.63
2022-09-16T01:13:37.578Z,48.46
2022-09-16T01:14:52.807Z,49.41
2022-09-16T01:16:01.684Z,48.11
2022-09-16T01:17:08.094Z,48.53
2022-09-16T01:18:11.669Z,49.98
2022-09-16T01:19:52.020Z,49.48
2022-09-16T01:21:08.598Z,49.32
2022-09-16T01:22:38.944Z,47.69
2022-09-16T01:24:05.198Z,47.93
2022-09-16T01:25:18.673Z,47.70
2022-09-16T01:26:47.344Z,48.08
2022-09-16T01:28:17.504Z,49.12
2022-09-16T01:29:37.396Z,49.11
2022-09-16T01:30:41.153Z,49.87
2022-09-16T01:31:48.139Z,48.27
2022-09-16T01:33:22.127Z,48.50
2022-09-16T01:34:24.848Z,50.70
2022-09-16T01:35:35.648Z,52.21
2022-09-16T01:37:01.159Z,51.17
2022-09-16T01:38:21.744Z,52.59
2022-09-16T01:39:25.859Z,52.35
2022-09-16T01:40:28.531Z,50.25
2022-09-16T01:41:46.416Z,50.22
2022-09-16T01:43:07.419Z,50.20
2022-09-16T01:44:17.252Z,50.43
2022-09-16T01:45:35.886Z,49.58
2022-09-16T01:46:52.493Z,49.53
2022-09-16T01:48:00.128Z,48.47
2022-09-16T01:49:43.429Z,48.07
2022-09-16T01:50:47.762Z,50.42
2022-09-16T01:51:57.079Z,49.08
2022-09-16T01:53:31.147Z,50.06
2022-09-16T01:54:39.251Z,51.14
2022-09-16T01:55:46.886Z,50.30
2022-09-16T01:56:54.632Z,50.87
2022-09-16T01:58:09.362Z,51.17
2022-09-16T01:59:15.678Z,51.57
2022-09-16T02:00:14.552Z,50.78
2022-09-16T02:01:37.887Z,51.69
2022-09-16T02:02:45.183Z,49.34
2022-09-16T02:03:45.958Z,50.09
2022-09-16T02:04:52.664Z,49.75
2022-09-16T02:05:56.130Z,49.67
2022-09-16T02:06:56.651Z,49.14
2022-09-16T02:08:06.014Z,48.52
2022-09-16T02:09:10.171Z,48.63
2022-09-16T02:10:33.247Z,48.86
2022-09-16T02:11:30.722Z,49.14
2022-09-16T02:12:32.211Z,48.48
2022-09-16T02:13:39.825Z,47.25
2022-09-16T02:14:43.057Z,47.93
2022-09-16T02:15:42.260Z,47.83
2022-09-16T02:16:46.051Z,47.35
2022-09-16T02:17:48.874Z,47.31
2022-09-16T02:18:53.079Z,46.66
2022-09-16T02:20:01.805Z,46.85
2022-09-16T02:21:01.648Z,46.85
2022-09-16T02:22:02.263Z,47.69
2022-09-16T02:23:07.864Z,47.85
2022-09-16T02:24:11.852Z,47.88
2022-09-16T02:25:10.093Z,47.94
2022-09-16T02:26:11.552Z,48.09
2022-09-16T02:27:14.158Z,48.67
2022-09-16T02:28:16.185Z,49.49
2022-09-16T02:29:19.424Z,49.27
2022-09-16T02:30:19.751Z,51.10
2022-09-16T02:31:21.839Z,49.48
2022-09-16T02:32:22.319Z,51.10
2022-09-16T02:33:20.505Z,51.56
2022-09-16T02:34:23.124Z,49.90
2022-09-16T02:35:22.026Z,49.46
2022-09-16T02:36:22.341Z,50.60
2022-09-16T02:37:24.845Z,50.77
2022-09-16T02:38:24.039Z,48.88
2022-09-16T02:39:27.391Z,50.43
2022-09-16T02:40:38.057Z,51.63
2022-09-16T02:41:36.369Z,51.02
2022-09-16T02:42:34.013Z,51.29
2022-09-16T02:43:31.257Z,50.89
2022-09-16T02:44:27.896Z,50.25
2022-09-16T02:45:46.806Z,53.75
2022-09-16T02:46:54.511Z,50.09
2022-09-16T02:48:13.570Z,49.49
2022-09-16T02:49:19.180Z,49.13
2022-09-16T02:50:18.314Z,49.25
2022-09-16T02:51:42.580Z,48.75
2022-09-16T02:52:39.181Z,48.75
2022-09-16T02:53:41.421Z,48.64
2022-09-16T02:54:53.504Z,47.24
2022-09-16T02:56:31.952Z,47.53
2022-09-16T02:57:29.379Z,47.24
2022-09-16T02:58:26.123Z,47.40
2022-09-16T02:59:23.591Z,46.82
2022-09-16T03:00:20.811Z,46.42
2022-09-16T03:01:19.422Z,46.41
2022-09-16T03:02:16.102Z,47.33
2022-09-16T03:03:13.740Z,46.58
2022-09-16T03:04:13.156Z,46.64
2022-09-16T03:05:09.752Z,46.84
2022-09-16T03:06:06.274Z,46.73
2022-09-16T03:07:05.878Z,46.93
2022-09-16T03:08:04.177Z,46.59
2022-09-16T03:09:02.176Z,46.82
2022-09-16T03:09:59.054Z,46.95
2022-09-16T03:10:58.335Z,46.87
2022-09-16T03:12:09.077Z,47.76
2022-09-16T03:13:37.634Z,48.11
2022-09-16T03:14:53.171Z,48.02
2022-09-16T03:16:03.419Z,48.13
2022-09-16T03:17:18.488Z,47.88
2022-09-16T03:18:43.733Z,47.60
2022-09-16T03:20:01.982Z,46.55
2022-09-16T03:21:21.720Z,45.52
2022-09-16T03:22:37.419Z,47.07
2022-09-16T03:23:56.424Z,47.90
2022-09-16T03:25:05.225Z,46.00
2022-09-16T03:26:22.990Z,45.72
2022-09-16T03:27:31.937Z,46.35
2022-09-16T03:28:39.462Z,47.04
2022-09-16T03:29:39.812Z,45.43
2022-09-16T03:31:04.044Z,48.75
2022-09-16T03:32:10.339Z,47.16
2022-09-16T03:33:17.959Z,46.90
2022-09-16T03:34:27.470Z,47.53
2022-09-16T03:35:37.123Z,45.98
2022-09-16T03:36:40.262Z,46.04
2022-09-16T03:37:39.644Z,45.78
2022-09-16T03:38:38.988Z,45.78
2022-09-16T03:39:36.812Z,45.27
2022-09-16T03:40:34.206Z,45.43
2022-09-16T03:41:34.053Z,46.75
2022-09-16T03:42:31.247Z,46.61
2022-09-16T03:43:27.782Z,46.00
2022-09-16T03:44:31.686Z,46.66
2022-09-16T03:45:28.352Z,46.75
2022-09-16T03:46:26.590Z,46.71
2022-09-16T03:47:23.250Z,46.49
2022-09-16T03:48:19.921Z,46.91
2022-09-16T03:49:17.126Z,47.57
2022-09-16T03:50:14.504Z,47.18
2022-09-16T03:51:11.090Z,46.38
2022-09-16T03:52:08.788Z,47.62
2022-09-16T03:53:05.672Z,45.99
2022-09-16T03:54:02.380Z,45.25
2022-09-16T03:54:59.020Z,46.11
2022-09-16T03:55:55.652Z,46.40
2022-09-16T03:56:52.287Z,46.85
2022-09-16T03:57:48.927Z,46.92
2022-09-16T03:58:48.693Z,46.87
2022-09-16T03:59:45.343Z,46.88
2022-09-16T04:00:41.926Z,46.66
2022-09-16T04:01:38.536Z,46.81
2022-09-16T04:02:35.778Z,46.09
2022-09-16T04:03:33.435Z,46.60
2022-09-16T04:04:30.156Z,46.31
2022-09-16T04:05:27.547Z,46.27
2022-09-16T04:06:24.103Z,46.33
2022-09-16T04:07:20.831Z,46.61
2022-09-16T04:08:17.510Z,46.54
2022-09-16T04:09:15.554Z,46.12
2022-09-16T04:10:12.555Z,46.46
2022-09-16T04:11:09.332Z,46.33
2022-09-16T04:12:07.779Z,45.77
2022-09-16T04:13:04.639Z,46.29
2022-09-16T04:14:01.713Z,46.48
2022-09-16T04:14:59.535Z,46.89
2022-09-16T04:15:57.566Z,46.55
2022-09-16T04:16:55.206Z,46.35
2022-09-16T04:17:51.911Z,46.00
2022-09-16T04:18:49.085Z,46.44
2022-09-16T04:19:45.697Z,46.63
2022-09-16T04:20:42.325Z,46.67
2022-09-16T04:21:39.943Z,46.58
2022-09-16T04:22:36.573Z,46.94
2022-09-16T04:23:33.189Z,47.01
2022-09-16T04:24:29.816Z,47.61
2022-09-16T04:25:26.415Z,49.02
2022-09-16T04:26:22.996Z,47.63
2022-09-16T04:27:19.546Z,47.15
2022-09-16T04:28:16.134Z,46.60
2022-09-16T04:29:12.830Z,46.69
2022-09-16T04:30:10.297Z,46.42
2022-09-16T04:31:11.076Z,46.79
2022-09-16T04:32:07.705Z,47.22
2022-09-16T04:33:04.289Z,46.93
2022-09-16T04:34:05.246Z,46.57
2022-09-16T04:35:01.831Z,46.89
2022-09-16T04:36:06.666Z,46.68
2022-09-16T04:37:04.290Z,46.97
2022-09-16T04:38:00.858Z,47.00
2022-09-16T04:38:57.439Z,46.76
2022-09-16T04:39:54.056Z,46.55
2022-09-16T04:40:50.685Z,46.05
2022-09-16T04:41:47.286Z,47.18
2022-09-16T04:42:51.117Z,46.39
2022-09-16T04:43:58.390Z,46.49
2022-09-16T04:44:55.088Z,46.79
2022-09-16T04:45:51.663Z,46.29
2022-09-16T04:46:48.324Z,47.10
2022-09-16T04:47:44.970Z,47.20
2022-09-16T04:48:41.597Z,47.45
2022-09-16T04:49:38.184Z,46.81
2022-09-16T04:50:34.841Z,46.41
2022-09-16T04:51:32.329Z,47.13
2022-09-16T04:52:30.836Z,47.60
2022-09-16T04:53:27.713Z,47.10
2022-09-16T04:54:24.369Z,46.84
2022-09-16T04:55:24.143Z,47.71
2022-09-16T04:56:26.090Z,47.51
2022-09-16T04:57:22.652Z,47.76
2022-09-16T04:58:19.244Z,47.94
2022-09-16T04:59:15.874Z,49.19
2022-09-16T05:00:13.021Z,49.66
2022-09-16T05:01:12.955Z,50.17
2022-09-16T05:02:09.901Z,47.43
2022-09-16T05:03:07.348Z,47.14
2022-09-16T05:04:06.192Z,46.86
2022-09-16T05:05:02.863Z,49.05
2022-09-16T05:06:08.020Z,48.07
2022-09-16T05:07:04.750Z,46.60
2022-09-16T05:08:01.443Z,46.72
2022-09-16T05:08:59.225Z,46.95
2022-09-16T05:09:56.052Z,47.36
2022-09-16T05:10:52.735Z,46.83
2022-09-16T05:11:49.752Z,49.91
2022-09-16T05:12:51.579Z,47.26
2022-09-16T05:13:48.729Z,48.24
2022-09-16T05:14:45.418Z,47.54
2022-09-16T05:15:42.120Z,47.78
2022-09-16T05:16:38.831Z,47.77
2022-09-16T05:17:51.673Z,48.00
2022-09-16T05:18:51.122Z,47.93
2022-09-16T05:19:47.734Z,48.88
2022-09-16T05:20:44.292Z,48.43
2022-09-16T05:21:41.696Z,48.02
2022-09-16T05:22:39.193Z,48.10
2022-09-16T05:23:36.427Z,47.60
2022-09-16T05:24:36.648Z,47.91
2022-09-16T05:25:33.548Z,47.51
2022-09-16T05:26:32.888Z,47.75
2022-09-16T05:27:32.715Z,49.69
2022-09-16T05:28:29.372Z,48.78
2022-09-16T05:29:25.969Z,47.26
2022-09-16T05:30:25.924Z,47.87
2022-09-16T05:31:26.657Z,48.85
2022-09-16T05:32:23.370Z,48.78
2022-09-16T05:33:20.187Z,47.63
2022-09-16T05:34:19.355Z,48.47
2022-09-16T05:35:15.929Z,49.91
2022-09-16T05:36:17.831Z,49.64
2022-09-16T05:37:14.558Z,49.94
2022-09-16T05:38:11.475Z,49.23
2022-09-16T05:39:25.059Z,48.83
2022-09-16T05:40:23.171Z,48.97
2022-09-16T05:41:20.010Z,48.92
2022-09-16T05:42:16.587Z,49.89
2022-09-16T05:43:13.153Z,49.98
2022-09-16T05:44:10.012Z,50.13
2022-09-16T05:45:07.398Z,48.74
2022-09-16T05:46:05.996Z,49.02
2022-09-16T05:47:02.973Z,52.20
2022-09-16T05:47:59.610Z,48.97
2022-09-16T05:48:56.841Z,50.43
2022-09-16T05:49:54.914Z,50.29
2022-09-16T05:51:03.313Z,49.18
2022-09-16T05:52:00.026Z,51.68
2022-09-16T05:52:56.682Z,48.51
2022-09-16T05:53:54.710Z,48.62
2022-09-16T05:54:51.295Z,49.23
2022-09-16T05:55:56.029Z,48.96
2022-09-16T05:56:53.073Z,49.84
2022-09-16T05:57:49.641Z,49.71
2022-09-16T05:58:47.027Z,50.61
2022-09-16T05:59:43.637Z,49.86
2022-09-16T06:00:40.198Z,48.89
2022-09-16T06:01:37.850Z,50.72
2022-09-16T06:02:34.661Z,50.40
2022-09-16T06:03:32.865Z,49.46
2022-09-16T06:04:29.407Z,49.60
2022-09-16T06:05:26.006Z,49.99
2022-09-16T06:06:28.418Z,49.21
2022-09-16T06:07:25.031Z,49.08
2022-09-16T06:08:21.601Z,48.55
2022-09-16T06:09:21.441Z,47.57
2022-09-16T06:10:18.653Z,48.41
2022-09-16T06:11:15.767Z,47.82
2022-09-16T06:12:12.340Z,48.59
2022-09-16T06:13:09.146Z,48.14
2022-09-16T06:14:06.201Z,47.40
2022-09-16T06:15:02.804Z,46.80
2022-09-16T06:15:59.545Z,47.19
2022-09-16T06:16:56.830Z,47.32
2022-09-16T06:17:53.460Z,47.94
2022-09-16T06:18:50.103Z,47.49
2022-09-16T06:19:46.728Z,46.17
2022-09-16T06:20:43.282Z,47.14
2022-09-16T06:21:41.034Z,47.25
2022-09-16T06:22:37.597Z,46.28
2022-09-16T06:23:35.171Z,46.60
2022-09-16T06:24:31.994Z,45.51
2022-09-16T06:25:28.607Z,45.41
2022-09-16T06:26:26.864Z,45.47
2022-09-16T06:27:23.522Z,45.87
2022-09-16T06:28:20.257Z,46.04
2022-09-16T06:29:17.677Z,46.16
2022-09-16T06:30:14.346Z,46.51
2022-09-16T06:31:20.158Z,45.42
2022-09-16T06:32:16.987Z,45.22
2022-09-16T06:33:13.724Z,45.09
2022-09-16T06:34:16.440Z,45.21
2022-09-16T06:35:13.064Z,44.81
2022-09-16T06:36:12.557Z,44.59
2022-09-16T06:37:12.684Z,44.56
2022-09-16T06:38:09.268Z,44.85
2022-09-16T06:39:06.888Z,44.62
2022-09-16T06:40:03.868Z,45.02
2022-09-16T06:41:01.900Z,43.63
2022-09-16T06:41:58.475Z,43.77
2022-09-16T06:43:00.008Z,43.80
2022-09-16T06:43:57.312Z,44.30
2022-09-16T06:44:54.175Z,43.67
2022-09-16T06:45:50.849Z,43.94
2022-09-16T06:46:47.734Z,43.77
2022-09-16T06:47:44.274Z,43.05
2022-09-16T06:48:41.275Z,44.75
2022-09-16T06:49:37.912Z,43.83
2022-09-16T06:50:34.482Z,44.15
2022-09-16T06:51:31.655Z,43.63
2022-09-16T06:52:28.401Z,43.83
2022-09-16T06:53:25.088Z,42.93
2022-09-16T06:54:21.691Z,43.40
2022-09-16T06:55:18.357Z,44.32
2022-09-16T06:56:18.092Z,42.78
2022-09-16T06:57:14.646Z,44.17
2022-09-16T06:58:11.215Z,42.85
2022-09-16T06:59:08.613Z,42.80
2022-09-16T07:00:05.874Z,41.83
2022-09-16T07:01:10.187Z,42.21
2022-09-16T07:02:06.868Z,43.40
2022-09-16T07:03:03.933Z,41.77
2022-09-16T07:04:05.476Z,42.47
2022-09-16T07:05:02.739Z,41.89
2022-09-16T07:06:04.579Z,42.33
2022-09-16T07:07:10.056Z,42.54
2022-09-16T07:08:07.533Z,41.87
2022-09-16T07:09:04.209Z,42.81
2022-09-16T07:10:00.759Z,42.09
2022-09-16T07:11:10.672Z,42.12
2022-09-16T07:12:08.032Z,41.82
2022-09-16T07:13:06.061Z,42.45
2022-09-16T07:14:02.688Z,41.96
2022-09-16T07:14:59.271Z,42.12
2022-09-16T07:16:15.957Z,42.15
2022-09-16T07:17:12.708Z,43.89
2022-09-16T07:18:09.342Z,44.68
2022-09-16T07:19:06.058Z,45.52
2022-09-16T07:20:03.044Z,45.55
2022-09-16T07:21:11.641Z,45.24
2022-09-16T07:22:08.491Z,45.04
2022-09-16T07:23:05.087Z,45.08
2022-09-16T07:24:03.352Z,45.93
2022-09-16T07:24:59.989Z,45.82
2022-09-16T07:26:04.667Z,44.85
2022-09-16T07:27:01.265Z,45.63
2022-09-16T07:27:57.896Z,44.61
2022-09-16T07:28:55.689Z,45.11
2022-09-16T07:29:53.982Z,44.29
2022-09-16T07:30:50.797Z,44.14
2022-09-16T07:31:48.179Z,44.59
2022-09-16T07:32:45.017Z,45.15
2022-09-16T07:33:44.397Z,44.73
2022-09-16T07:34:41.219Z,43.83
2022-09-16T07:35:37.956Z,43.31
2022-09-16T07:36:46.171Z,43.12
2022-09-16T07:37:42.942Z,44.55
2022-09-16T07:38:39.554Z,44.67
2022-09-16T07:39:36.121Z,45.10
2022-09-16T07:40:34.255Z,44.63
2022-09-16T07:41:34.298Z,44.81
2022-09-16T07:42:30.949Z,44.77
2022-09-16T07:43:27.873Z,45.07
2022-09-16T07:44:25.782Z,45.07
2022-09-16T07:45:22.357Z,43.94
2022-09-16T07:46:20.015Z,44.39
2022-09-16T07:47:21.416Z,44.66
2022-09-16T07:48:18.753Z,43.25
2022-09-16T07:49:15.475Z,42.24
2022-09-16T07:50:12.039Z,42.05
2022-09-16T07:51:11.338Z,40.95
2022-09-16T07:52:07.902Z,41.38
2022-09-16T07:53:04.615Z,41.13
2022-09-16T07:54:05.342Z,40.48
2022-09-16T07:55:01.890Z,40.26
2022-09-16T07:56:06.619Z,41.39
2022-09-16T07:57:03.194Z,40.79
2022-09-16T07:57:59.891Z,38.25
2022-09-16T07:58:57.639Z,38.97
2022-09-16T07:59:54.636Z,39.11
2022-09-16T08:00:51.213Z,39.31
2022-09-16T08:01:50.964Z,38.95
2022-09-16T08:02:47.824Z,38.71
2022-09-16T08:03:46.026Z,39.41
2022-09-16T08:04:43.484Z,38.82
2022-09-16T08:05:40.242Z,38.42
2022-09-16T08:06:39.396Z,38.44
2022-09-16T08:07:36.601Z,37.38
2022-09-16T08:08:33.946Z,38.22
2022-09-16T08:09:41.314Z,38.72
2022-09-16T08:10:43.952Z,40.57
2022-09-16T08:11:40.615Z,40.13
2022-09-16T08:12:37.307Z,35.94
2022-09-16T08:13:35.825Z,37.46
2022-09-16T08:14:33.349Z,37.62
2022-09-16T08:15:30.291Z,37.42
2022-09-16T08:16:27.977Z,37.97
2022-09-16T08:17:24.957Z,38.32
2022-09-16T08:18:22.119Z,38.99
2022-09-16T08:19:20.476Z,38.67
2022-09-16T08:20:17.201Z,39.99
2022-09-16T08:21:22.050Z,38.90
2022-09-16T08:22:18.654Z,40.50
2022-09-16T08:23:15.215Z,39.31
2022-09-16T08:24:11.843Z,37.03
2022-09-16T08:25:08.482Z,37.33
2022-09-16T08:26:06.335Z,38.19
2022-09-16T08:27:02.997Z,37.83
2022-09-16T08:27:59.536Z,38.48
2022-09-16T08:29:11.887Z,38.12
2022-09-16T08:30:10.097Z,37.68
2022-09-16T08:31:06.680Z,38.36
2022-09-16T08:32:03.392Z,38.67
2022-09-16T08:33:00.365Z,39.19
2022-09-16T08:33:57.228Z,39.34
2022-09-16T08:34:53.998Z,38.71
2022-09-16T08:36:02.524Z,38.79
2022-09-16T08:36:59.128Z,38.78
2022-09-16T08:37:56.842Z,38.06
2022-09-16T08:38:56.125Z,38.90
2022-09-16T08:39:53.008Z,38.43
2022-09-16T08:40:49.873Z,38.70
2022-09-16T08:42:09.208Z,39.15
2022-09-16T08:43:24.639Z,39.57
2022-09-16T08:44:54.222Z,39.83
2022-09-16T08:46:10.210Z,38.53
2022-09-16T08:47:21.981Z,38.76
2022-09-16T08:48:31.973Z,39.43
2022-09-16T08:49:40.013Z,39.67
2022-09-16T08:50:43.063Z,40.12
2022-09-16T08:51:39.934Z,40.59
2022-09-16T08:52:38.863Z,41.27
2022-09-16T08:53:59.194Z,39.85
2022-09-16T08:55:00.843Z,39.79
2022-09-16T08:55:58.656Z,40.31
2022-09-16T08:57:00.975Z,41.14
2022-09-16T08:57:57.469Z,40.87
2022-09-16T08:58:57.660Z,41.31
2022-09-16T08:59:59.613Z,39.19
2022-09-16T09:01:05.106Z,42.19
2022-09-16T09:02:36.147Z,40.51
2022-09-16T09:03:46.108Z,39.81
2022-09-16T09:04:43.667Z,40.24
2022-09-16T09:06:02.061Z,41.26
2022-09-16T09:07:17.873Z,40.39
2022-09-16T09:08:33.234Z,41.06
2022-09-16T09:09:45.379Z,41.03
2022-09-16T09:10:59.665Z,40.97
2022-09-16T09:12:02.040Z,40.24
2022-09-16T09:13:11.390Z,39.55
2022-09-16T09:14:36.705Z,41.02
2022-09-16T09:16:08.589Z,41.74
2022-09-16T09:17:37.154Z,41.43
2022-09-16T09:19:12.980Z,39.98
2022-09-16T09:20:21.780Z,40.00
2022-09-16T09:21:31.648Z,39.67
2022-09-16T09:22:56.480Z,40.01
2022-09-16T09:24:16.379Z,39.33
2022-09-16T09:25:34.861Z,39.06
2022-09-16T09:26:31.443Z,39.29
2022-09-16T09:27:45.126Z,39.15
2022-09-16T09:29:00.446Z,40.08
2022-09-16T09:30:19.376Z,39.92
2022-09-16T09:31:41.096Z,39.68
2022-09-16T09:33:02.081Z,41.21
2022-09-16T09:34:04.590Z,39.24
2022-09-16T09:35:47.266Z,39.24
2022-09-16T09:36:52.623Z,38.84
2022-09-16T09:38:07.098Z,38.99
2022-09-16T09:39:26.594Z,39.02
2022-09-16T09:40:49.510Z,38.51
2022-09-16T09:41:52.863Z,39.81
2022-09-16T09:42:57.512Z,39.83
2022-09-16T09:44:04.664Z,38.29
2022-09-16T09:45:19.445Z,37.65
2022-09-16T09:46:31.520Z,37.25
2022-09-16T09:47:43.007Z,39.34
2022-09-16T09:48:51.871Z,38.81
2022-09-16T09:49:56.347Z,39.20
2022-09-16T09:50:53.896Z,38.50
2022-09-16T09:52:14.467Z,40.04
2022-09-16T09:53:25.117Z,40.09
2022-09-16T09:54:30.248Z,41.35
2022-09-16T09:55:31.492Z,41.21
2022-09-16T09:56:32.849Z,40.74
2022-09-16T09:57:47.112Z,41.07
2022-09-16T09:59:19.324Z,41.56
2022-09-16T10:00:22.135Z,40.34
2022-09-16T10:01:18.833Z,40.84
2022-09-16T10:02:19.448Z,39.96
2022-09-16T10:03:18.562Z,40.42
2022-09-16T10:04:16.061Z,40.97
2022-09-16T10:05:22.120Z,42.03
2022-09-16T10:06:25.216Z,42.06
2022-09-16T10:07:24.496Z,43.37
2022-09-16T10:08:21.378Z,41.31
2022-09-16T10:09:20.731Z,42.24
2022-09-16T10:10:22.344Z,42.30
2022-09-16T10:11:22.514Z,41.76
2022-09-16T10:12:35.713Z,43.50
2022-09-16T10:13:32.357Z,43.55
2022-09-16T10:14:34.402Z,43.65
2022-09-16T10:15:31.862Z,45.18
2022-09-16T10:16:37.370Z,45.49
2022-09-16T10:17:34.322Z,49.51
2022-09-16T10:18:32.503Z,48.85
2022-09-16T10:19:31.857Z,48.48
2022-09-16T10:20:33.113Z,50.35
2022-09-16T10:21:47.689Z,53.55
2022-09-16T10:23:04.870Z,53.68
2022-09-16T10:24:01.676Z,54.67
2022-09-16T10:24:59.270Z,56.28
2022-09-16T10:26:21.612Z,56.94
2022-09-16T10:27:30.632Z,60.21
2022-09-16T10:28:27.190Z,58.10
2022-09-16T10:29:23.972Z,60.14
2022-09-16T10:31:29.141Z,62.52
2022-09-16T10:32:28.757Z,60.09
2022-09-16T10:33:28.510Z,61.46
2022-09-16T10:34:44.553Z,62.75
2022-09-16T10:35:50.960Z,64.27
2022-09-16T10:37:02.941Z,65.26
2022-09-16T10:38:03.789Z,67.61
2022-09-16T10:39:04.986Z,71.09
2022-09-16T10:40:04.880Z,72.20
2022-09-16T10:41:08.489Z,73.55
2022-09-16T10:42:06.723Z,73.95
2022-09-16T10:43:07.685Z,75.44
2022-09-16T10:44:17.457Z,77.15
2022-09-16T10:45:19.083Z,76.92
2022-09-16T10:46:17.494Z,78.18
2022-09-16T10:47:24.660Z,77.80
2022-09-16T10:48:24.635Z,77.50
2022-09-16T10:49:28.733Z,78.05
2022-09-16T10:50:26.430Z,77.93
2022-09-16T10:51:31.396Z,80.92
2022-09-16T10:52:30.574Z,80.27
2022-09-16T10:53:40.888Z,79.46
2022-09-16T10:54:40.195Z,79.38
2022-09-16T10:55:38.156Z,79.26
2022-09-16T10:56:55.344Z,78.42
2022-09-16T10:57:52.779Z,79.10
2022-09-16T10:58:49.602Z,79.86
2022-09-16T11:00:11.743Z,78.77
2022-09-16T11:01:34.180Z,79.88
2022-09-16T11:02:59.121Z,78.58
2022-09-16T11:04:08.136Z,78.23
2022-09-16T11:05:29.766Z,79.13
2022-09-16T11:06:40.572Z,80.11
2022-09-16T11:07:48.870Z,77.37
2022-09-16T11:08:55.957Z,76.54
2022-09-16T11:10:16.194Z,77.33
2022-09-16T11:13:06.481Z,80.08
2022-09-16T11:14:22.815Z,79.13
2022-09-16T11:15:42.275Z,78.85
2022-09-16T11:16:57.101Z,79.90
2022-09-16T11:18:08.668Z,78.03
2022-09-16T11:19:20.321Z,77.90
2022-09-16T11:20:38.671Z,79.33
2022-09-16T11:21:55.912Z,80.33
2022-09-16T11:22:59.886Z,79.46
2022-09-16T11:24:08.497Z,80.49
2022-09-16T11:25:23.690Z,78.16
2022-09-16T11:26:25.281Z,78.78
2022-09-16T11:27:40.904Z,79.82
2022-09-16T11:28:53.781Z,80.48
2022-09-16T11:29:57.808Z,79.21
2022-09-16T11:31:06.454Z,76.96
2022-09-16T11:32:05.714Z,74.95
2022-09-16T11:33:08.245Z,76.70
2022-09-16T11:34:20.953Z,74.81
2022-09-16T11:35:54.680Z,71.45
2022-09-16T11:36:54.475Z,70.35
2022-09-16T11:38:10.521Z,71.87
2022-09-16T11:39:43.757Z,75.24
2022-09-16T11:40:47.974Z,65.14
2022-09-16T11:42:03.089Z,66.93
2022-09-16T11:43:18.119Z,64.25
2022-09-16T11:44:43.441Z,63.75
2022-09-16T11:45:49.767Z,63.85
2022-09-16T11:47:31.260Z,64.82
2022-09-16T11:48:46.003Z,65.96
2022-09-16T11:50:09.492Z,63.02
2022-09-16T11:51:27.974Z,64.77
2022-09-16T11:52:49.374Z,67.05
2022-09-16T11:54:01.765Z,66.67
2022-09-16T11:55:06.666Z,69.63
2022-09-16T11:56:18.340Z,68.37
2022-09-16T11:57:28.997Z,67.63
2022-09-16T11:58:38.294Z,64.94
2022-09-16T11:59:41.197Z,68.06
2022-09-16T12:00:39.487Z,64.85
2022-09-16T12:01:52.326Z,66.08
2022-09-16T12:03:10.645Z,61.76
2022-09-16T12:04:28.935Z,61.43
2022-09-16T12:05:29.702Z,64.63
2022-09-16T12:06:32.081Z,65.21
2022-09-16T12:07:45.200Z,64.07
2022-09-16T12:09:00.315Z,65.92
2022-09-16T12:10:44.677Z,67.26
2022-09-16T12:11:50.359Z,63.57
2022-09-16T12:12:52.882Z,63.08
2022-09-16T12:14:05.120Z,60.06
2022-09-16T12:15:16.719Z,61.91
2022-09-16T12:16:38.973Z,61.65
2022-09-16T12:17:39.719Z,57.22
2022-09-16T12:18:43.052Z,57.89
2022-09-16T12:19:49.227Z,62.63
2022-09-16T12:20:51.705Z,63.98
2022-09-16T12:21:58.384Z,61.62
2022-09-16T12:23:09.705Z,64.09
2022-09-16T12:24:45.146Z,62.20
2022-09-16T12:25:48.003Z,64.13
2022-09-16T12:26:57.771Z,63.77
2022-09-16T12:28:01.804Z,64.64
2022-09-16T12:29:05.173Z,65.95
2022-09-16T12:30:20.755Z,64.43
2022-09-16T12:31:27.180Z,63.94
2022-09-16T12:32:53.433Z,66.06
2022-09-16T12:33:56.204Z,65.43
2022-09-16T12:35:01.472Z,64.22
2022-09-16T12:36:19.079Z,64.63
2022-09-16T12:37:36.957Z,63.68
2022-09-16T12:38:34.027Z,62.92
2022-09-16T12:39:30.642Z,65.09
2022-09-16T12:40:41.140Z,65.30
2022-09-16T12:42:04.954Z,63.91
2022-09-16T12:43:25.921Z,66.78
2022-09-16T12:45:00.079Z,66.13
2022-09-16T12:46:17.705Z,66.09
2022-09-16T12:47:36.116Z,68.12
2022-09-16T12:48:56.422Z,68.83
2022-09-16T12:50:15.700Z,68.13
2022-09-16T12:51:59.599Z,64.61
2022-09-16T12:53:24.185Z,65.20
2022-09-16T12:54:41.252Z,65.99
2022-09-16T12:56:14.907Z,67.51
2022-09-16T12:57:48.348Z,68.30
2022-09-16T12:59:33.138Z,69.13
2022-09-16T13:00:41.701Z,70.84
2022-09-16T13:01:59.655Z,70.89
2022-09-16T13:03:01.105Z,70.44
2022-09-16T13:04:03.110Z,69.58
2022-09-16T13:05:10.195Z,70.42
2022-09-16T13:06:25.777Z,69.34
2022-09-16T13:07:27.539Z,73.34
2022-09-16T13:08:27.923Z,72.98
2022-09-16T13:09:47.447Z,70.58
2022-09-16T13:10:56.034Z,71.88
2022-09-16T13:13:31.128Z,75.48
2022-09-16T13:14:32.178Z,74.80
2022-09-16T13:15:39.003Z,74.41
2022-09-16T13:16:37.199Z,75.16
2022-09-16T13:17:39.333Z,74.52
2022-09-16T13:18:43.832Z,71.52
2022-09-16T13:19:54.231Z,72.92
2022-09-16T13:20:57.631Z,75.20
2022-09-16T13:22:17.785Z,73.58
2022-09-16T13:23:27.031Z,76.78
2022-09-16T13:24:43.180Z,78.33
2022-09-16T13:25:55.069Z,75.10
2022-09-16T13:26:52.123Z,73.30
2022-09-16T13:27:58.491Z,73.23
2022-09-16T13:28:57.932Z,74.79
2022-09-16T13:30:11.321Z,77.31
2022-09-16T13:31:17.856Z,76.94
2022-09-16T13:32:57.933Z,76.85
2022-09-16T13:33:57.626Z,78.65
2022-09-16T13:35:01.877Z,80.06
2022-09-16T13:36:20.217Z,78.51
2022-09-16T13:37:23.989Z,80.46
2022-09-16T13:38:25.903Z,78.37
2022-09-16T13:39:34.177Z,80.41
2022-09-16T13:40:31.708Z,80.37
2022-09-16T13:41:34.337Z,79.16
2022-09-16T13:42:30.933Z,77.85
2022-09-16T13:43:42.455Z,78.29
2022-09-16T13:44:40.468Z,79.68
2022-09-16T13:45:43.123Z,79.46
2022-09-16T13:46:39.907Z,79.78
2022-09-16T13:47:40.363Z,78.78
2022-09-16T13:48:56.856Z,79.24